Time;durP1;ratioP1;P1;durP2;ratioP2;P2;SDS_P1;SDS_P2;PMS_P1;PMS_P2;Temp;Humidity;BMP_temperature;BMP_pressure;BME280_temperature;BME280_humidity;BME280_pressure;Samples;Min_cycle;Max_cycle;Signal;HPM_P1;HPM_P2
2023/07/03 00:00:46;;;;;;;8.20;3.30;;;17.20;99.90;;;;;;5085256;28;20261;-68
2023/07/03 00:03:13;;;;;;;13.77;4.33;;;17.30;99.90;;;;;;5081463;28;20661;-69
2023/07/03 00:05:46;;;;;;;7.93;3.60;;;17.20;99.90;;;;;;5083543;28;20423;-69
2023/07/03 00:08:14;;;;;;;9.60;3.70;;;17.20;99.90;;;;;;5081283;28;20406;-69
2023/07/03 00:10:39;;;;;;;7.83;3.70;;;17.10;99.90;;;;;;5081485;28;20507;-69
2023/07/03 00:13:06;;;;;;;9.87;3.90;;;17.00;99.90;;;;;;5084238;28;20410;-69
2023/07/03 00:15:31;;;;;;;12.87;4.43;;;17.00;99.90;;;;;;5079904;28;20183;-69
2023/07/03 00:17:57;;;;;;;6.60;3.33;;;17.00;99.90;;;;;;5083827;28;20466;-69
2023/07/03 00:20:23;;;;;;;6.83;3.20;;;17.00;99.90;;;;;;5086474;28;20204;-70
2023/07/03 00:22:51;;;;;;;11.00;3.83;;;17.00;99.90;;;;;;5081455;28;20657;-69
2023/07/03 00:25:17;;;;;;;6.73;3.90;;;16.90;99.90;;;;;;5084480;28;20189;-69
2023/07/03 00:27:43;;;;;;;8.70;3.50;;;16.90;99.90;;;;;;5085218;28;20415;-69
2023/07/03 00:30:10;;;;;;;11.57;4.90;;;16.90;99.90;;;;;;5083735;28;20550;-69
2023/07/03 00:32:36;;;;;;;8.00;4.10;;;16.80;99.90;;;;;;5085817;28;20433;-69
2023/07/03 00:35:02;;;;;;;6.73;3.10;;;16.80;99.90;;;;;;5082184;28;20463;-69
2023/07/03 00:37:28;;;;;;;11.53;4.10;;;16.80;99.90;;;;;;5070113;28;20185;-69
2023/07/03 00:39:54;;;;;;;9.93;3.33;;;16.70;99.90;;;;;;5068740;28;20420;-69
2023/07/03 00:42:23;;;;;;;12.40;3.77;;;16.70;99.90;;;;;;5068070;28;20408;-69
2023/07/03 00:44:49;;;;;;;9.77;3.27;;;16.70;99.90;;;;;;5068552;28;20185;-69
2023/07/03 00:47:15;;;;;;;7.87;3.20;;;16.70;99.90;;;;;;5068552;28;20417;-69
2023/07/03 00:49:40;;;;;;;10.90;5.07;;;16.70;99.90;;;;;;5068616;28;20327;-69
2023/07/03 00:52:09;;;;;;;8.70;3.73;;;16.70;99.90;;;;;;5080511;28;20196;-69
2023/07/03 00:54:35;;;;;;;6.00;2.93;;;16.70;99.90;;;;;;5086987;28;20219;-69
2023/07/03 00:57:00;;;;;;;9.00;4.00;;;16.60;99.90;;;;;;5088921;28;20406;-69
2023/07/03 00:59:26;;;;;;;5.47;2.70;;;16.50;99.90;;;;;;5087810;28;20183;-68
2023/07/03 01:02:12;;;;;;;8.43;3.57;;;16.50;99.90;;;;;;5088678;28;20176;-68
2023/07/03 01:04:49;;;;;;;9.13;3.83;;;16.50;99.90;;;;;;5088450;28;20248;-69
2023/07/03 01:07:17;;;;;;;8.57;4.40;;;16.40;99.90;;;;;;5088812;28;20454;-69
2023/07/03 01:09:47;;;;;;;13.07;4.60;;;16.30;99.90;;;;;;5087481;28;20421;-69
2023/07/03 01:12:14;;;;;;;6.53;3.57;;;16.30;99.90;;;;;;5088178;28;20398;-69
2023/07/03 01:14:43;;;;;;;12.50;4.47;;;16.20;99.90;;;;;;5088287;28;20450;-68
2023/07/03 01:17:09;;;;;;;9.17;3.43;;;16.30;99.90;;;;;;5088803;28;20753;-68
2023/07/03 01:19:37;;;;;;;9.80;3.77;;;16.30;99.90;;;;;;5088587;28;20430;-69
2023/07/03 01:22:25;;;;;;;8.40;4.33;;;16.30;99.90;;;;;;5087995;28;20407;-68
2023/07/03 01:24:56;;;;;;;11.80;3.77;;;16.20;99.90;;;;;;5088224;28;20468;-68
2023/07/03 01:27:27;;;;;;;6.23;3.43;;;16.20;99.90;;;;;;5087188;28;20422;-70
2023/07/03 01:29:54;;;;;;;9.63;4.40;;;16.20;99.90;;;;;;5088487;28;20422;-69
2023/07/03 01:32:22;;;;;;;12.60;4.70;;;16.20;99.90;;;;;;5087927;28;20410;-69
2023/07/03 01:34:53;;;;;;;7.70;3.40;;;16.10;99.90;;;;;;5086658;28;20463;-69
2023/07/03 01:37:23;;;;;;;13.57;3.87;;;16.00;99.90;;;;;;5090779;28;20403;-69
2023/07/03 01:39:51;;;;;;;6.80;2.87;;;16.00;99.90;;;;;;5092307;28;20512;-69
2023/07/03 01:42:18;;;;;;;12.43;4.33;;;15.90;99.90;;;;;;5091772;28;20413;-69
2023/07/03 01:44:44;;;;;;;8.20;4.30;;;15.80;99.90;;;;;;5091808;28;20463;-69
2023/07/03 01:47:12;;;;;;;9.40;4.13;;;15.80;99.90;;;;;;5092276;28;20414;-69
2023/07/03 01:49:38;;;;;;;11.57;4.27;;;15.70;99.90;;;;;;5092153;28;20275;-68
2023/07/03 01:52:34;;;;;;;8.80;3.50;;;15.80;99.90;;;;;;5091459;28;20489;-69
2023/07/03 01:55:13;;;;;;;6.00;3.10;;;15.80;99.90;;;;;;5091756;28;20208;-69
2023/07/03 01:57:59;;;;;;;11.20;4.10;;;15.80;99.90;;;;;;5092055;28;20402;-69
2023/07/03 02:00:35;;;;;;;11.23;4.00;;;15.80;99.90;;;;;;5091836;28;20422;-69
2023/07/03 02:03:07;;;;;;;11.30;3.63;;;15.70;99.90;;;;;;5091069;28;20417;-69
2023/07/03 02:05:36;;;;;;;7.00;3.60;;;15.70;99.90;;;;;;5090740;28;20459;-69
2023/07/03 02:08:04;;;;;;;11.40;4.03;;;15.80;99.90;;;;;;5091850;28;20410;-69
2023/07/03 02:10:30;;;;;;;8.27;3.73;;;15.80;99.90;;;;;;5091622;28;20946;-69
2023/07/03 02:12:56;;;;;;;11.10;3.90;;;15.60;99.90;;;;;;5070353;28;20433;-69
2023/07/03 02:15:21;;;;;;;7.23;3.43;;;15.70;99.90;;;;;;5081656;28;20204;-69
2023/07/03 02:17:47;;;;;;;12.33;4.47;;;15.70;99.90;;;;;;5082738;28;20311;-69
2023/07/03 02:20:16;;;;;;;7.10;3.67;;;15.70;99.90;;;;;;5081309;28;20196;-69
2023/07/03 02:22:42;;;;;;;8.80;3.67;;;15.70;99.90;;;;;;5088874;28;20219;-69
2023/07/03 02:25:09;;;;;;;9.20;4.17;;;15.60;99.90;;;;;;5083676;28;20415;-69
2023/07/03 02:27:35;;;;;;;11.20;3.67;;;15.70;99.90;;;;;;5090930;28;20462;-69
2023/07/03 02:30:02;;;;;;;11.40;4.73;;;15.60;99.90;;;;;;5079718;28;20465;-69
2023/07/03 02:32:38;;;;;;;9.50;3.53;;;15.60;99.90;;;;;;5084602;28;20381;-69
2023/07/03 02:35:05;;;;;;;9.60;4.10;;;15.70;99.90;;;;;;5084144;28;20541;-69
2023/07/03 02:37:31;;;;;;;7.67;3.50;;;15.70;99.90;;;;;;5087409;28;20418;-69
2023/07/03 02:39:57;;;;;;;14.37;4.10;;;15.60;99.90;;;;;;5082036;28;20422;-69
2023/07/03 02:42:22;;;;;;;15.03;4.53;;;15.70;99.90;;;;;;5085374;28;20422;-69
2023/07/03 02:44:48;;;;;;;8.80;3.67;;;15.70;99.90;;;;;;5076066;28;20184;-69
2023/07/03 02:47:14;;;;;;;13.33;3.90;;;15.70;99.90;;;;;;5079719;28;20191;-69
2023/07/03 02:49:41;;;;;;;5.37;3.23;;;15.60;99.90;;;;;;5086038;28;20600;-69
2023/07/03 02:52:06;;;;;;;9.43;4.00;;;15.70;99.90;;;;;;5083303;28;20446;-69
2023/07/03 02:54:32;;;;;;;9.93;4.83;;;15.70;99.90;;;;;;5083177;28;20491;-69
2023/07/03 02:56:58;;;;;;;12.00;4.30;;;15.70;99.90;;;;;;5080762;28;20189;-69
2023/07/03 02:59:23;;;;;;;7.07;3.60;;;15.70;99.90;;;;;;5081719;28;20217;-69
2023/07/03 03:01:49;;;;;;;18.63;5.20;;;15.70;99.90;;;;;;5089135;28;20734;-69
2023/07/03 03:04:16;;;;;;;8.47;3.60;;;15.70;99.90;;;;;;5079147;28;20286;-69
2023/07/03 03:06:43;;;;;;;15.77;4.10;;;15.60;99.90;;;;;;5086709;28;20267;-69
2023/07/03 03:09:12;;;;;;;13.17;4.10;;;15.60;99.90;;;;;;5084987;28;20567;-69
2023/07/03 03:11:37;;;;;;;12.87;3.60;;;15.60;99.90;;;;;;5086580;28;21581;-69
2023/07/03 03:14:03;;;;;;;9.70;3.43;;;15.60;99.90;;;;;;5083690;28;20465;-69
2023/07/03 03:16:29;;;;;;;11.03;4.37;;;15.60;99.90;;;;;;5086812;28;20181;-69
2023/07/03 03:18:55;;;;;;;10.47;3.60;;;15.60;99.90;;;;;;5082653;28;20958;-69
2023/07/03 03:21:20;;;;;;;8.23;3.80;;;15.60;99.90;;;;;;5085252;28;20209;-69
2023/07/03 03:23:49;;;;;;;11.23;4.10;;;15.50;99.90;;;;;;5080744;28;20191;-69
2023/07/03 03:26:14;;;;;;;11.13;4.77;;;15.50;99.90;;;;;;5089971;28;20195;-69
2023/07/03 03:28:40;;;;;;;12.30;4.47;;;15.50;99.90;;;;;;5091356;27;20418;-68
2023/07/03 03:31:06;;;;;;;9.73;3.50;;;15.60;99.90;;;;;;5083554;28;20197;-69
2023/07/03 03:33:31;;;;;;;10.20;4.47;;;15.60;99.90;;;;;;5085087;28;20209;-69
2023/07/03 03:35:57;;;;;;;10.00;4.07;;;15.50;99.90;;;;;;5083175;28;20230;-69
2023/07/03 03:38:23;;;;;;;12.27;4.10;;;15.50;99.90;;;;;;5083968;28;20183;-69
2023/07/03 03:41:00;;;;;;;10.83;4.00;;;15.50;99.90;;;;;;5082059;28;20196;-69
2023/07/03 03:43:26;;;;;;;13.03;5.03;;;15.50;99.90;;;;;;5082545;28;20191;-69
2023/07/03 03:46:00;;;;;;;13.57;4.20;;;15.50;99.90;;;;;;5082921;28;21081;-69
2023/07/03 03:48:27;;;;;;;10.10;4.77;;;15.50;99.90;;;;;;5085674;28;20631;-69
2023/07/03 03:50:55;;;;;;;8.43;4.70;;;15.40;99.90;;;;;;5080442;28;20965;-68
2023/07/03 03:53:20;;;;;;;12.97;3.97;;;15.30;99.90;;;;;;5083583;28;20425;-68
2023/07/03 03:55:50;;;;;;;12.17;4.03;;;15.20;99.90;;;;;;5078489;28;20825;-68
2023/07/03 03:58:17;;;;;;;10.27;4.23;;;15.20;99.90;;;;;;5082958;28;20180;-68
2023/07/03 04:00:44;;;;;;;16.27;4.17;;;15.30;99.90;;;;;;5083841;28;20439;-69
2023/07/03 04:03:10;;;;;;;9.50;3.93;;;15.30;99.90;;;;;;5081268;28;20406;-69
2023/07/03 04:05:36;;;;;;;11.90;3.57;;;15.40;99.90;;;;;;5082247;28;20546;-69
2023/07/03 04:08:02;;;;;;;16.47;4.50;;;15.40;99.90;;;;;;5081383;28;20946;-69
2023/07/03 04:10:28;;;;;;;14.20;4.00;;;15.40;99.90;;;;;;5080084;28;20440;-69
2023/07/03 04:12:54;;;;;;;13.27;4.73;;;15.40;99.90;;;;;;5088399;28;20512;-69
2023/07/03 04:15:22;;;;;;;10.70;3.90;;;15.30;99.90;;;;;;5076668;28;20459;-69
2023/07/03 04:17:48;;;;;;;9.17;3.83;;;15.30;99.90;;;;;;5086307;28;20180;-69
2023/07/03 04:20:14;;;;;;;13.87;3.90;;;15.30;99.90;;;;;;5089310;28;20777;-69
2023/07/03 04:22:43;;;;;;;12.07;4.40;;;15.30;99.90;;;;;;5088703;28;20494;-69
2023/07/03 04:25:10;;;;;;;11.30;4.37;;;15.30;99.90;;;;;;5089193;28;20270;-69
2023/07/03 04:27:36;;;;;;;14.13;4.70;;;15.30;99.90;;;;;;5104267;28;20827;-69
2023/07/03 04:30:06;;;;;;;26.23;5.40;;;15.40;99.90;;;;;;5109640;28;20516;-69
2023/07/03 04:32:32;;;;;;;12.63;4.80;;;15.40;99.90;;;;;;5108925;28;20421;-69
2023/07/03 04:35:00;;;;;;;10.47;4.17;;;15.50;99.90;;;;;;5104203;28;20441;-68
2023/07/03 04:37:27;;;;;;;16.30;4.70;;;15.50;99.90;;;;;;5080819;28;20180;-68
2023/07/03 04:39:53;;;;;;;9.30;4.27;;;15.50;99.90;;;;;;5082300;28;20475;-68
2023/07/03 04:42:20;;;;;;;12.83;4.80;;;15.50;99.90;;;;;;5085069;28;20428;-68
2023/07/03 04:44:48;;;;;;;10.23;4.67;;;15.50;99.90;;;;;;5069402;28;20859;-68
2023/07/03 04:47:16;;;;;;;13.93;4.83;;;15.50;99.90;;;;;;5078568;28;20430;-68
2023/07/03 04:49:45;;;;;;;17.50;4.73;;;15.60;99.90;;;;;;5084437;28;20441;-68
2023/07/03 04:52:16;;;;;;;11.60;4.67;;;15.60;99.90;;;;;;5087940;28;20468;-69
2023/07/03 04:54:42;;;;;;;10.67;3.73;;;15.70;99.90;;;;;;5088336;28;20489;-68
2023/07/03 04:57:08;;;;;;;11.60;3.90;;;15.70;99.90;;;;;;5086989;28;20428;-68
2023/07/03 04:59:35;;;;;;;11.60;4.33;;;15.70;99.90;;;;;;5087283;28;20415;-68
2023/07/03 05:02:01;;;;;;;12.80;4.70;;;15.70;99.90;;;;;;5088233;28;20255;-68
2023/07/03 05:04:27;;;;;;;13.20;5.30;;;15.70;99.90;;;;;;5088714;28;20529;-68
2023/07/03 05:06:53;;;;;;;13.57;4.50;;;15.70;99.90;;;;;;5087488;28;20423;-68
2023/07/03 05:09:19;;;;;;;14.33;4.70;;;15.70;99.90;;;;;;5085653;28;20418;-68
2023/07/03 05:11:48;;;;;;;9.83;4.83;;;15.80;99.90;;;;;;5089378;28;20580;-68
2023/07/03 05:14:14;;;;;;;14.97;5.07;;;15.80;99.90;;;;;;5091666;28;20814;-68
2023/07/03 05:16:40;;;;;;;15.17;4.67;;;15.90;99.90;;;;;;5092630;28;20419;-69
2023/07/03 05:19:06;;;;;;;11.53;4.53;;;15.90;99.90;;;;;;5092764;28;20402;-68
2023/07/03 05:21:31;;;;;;;13.13;5.17;;;15.90;99.90;;;;;;5092578;28;20272;-68
2023/07/03 05:23:57;;;;;;;11.73;4.93;;;16.00;99.90;;;;;;5085875;28;20194;-68
2023/07/03 05:26:24;;;;;;;13.80;4.40;;;16.00;99.90;;;;;;5096861;28;20190;-68
2023/07/03 05:28:50;;;;;;;15.43;4.80;;;16.00;99.90;;;;;;5092484;27;20187;-68
2023/07/03 05:31:16;;;;;;;12.90;4.73;;;16.10;99.90;;;;;;5092246;28;20875;-68
2023/07/03 05:33:41;;;;;;;17.77;4.53;;;16.00;99.90;;;;;;5089487;28;20737;-68
2023/07/03 05:36:08;;;;;;;10.33;5.20;;;16.10;99.90;;;;;;5092251;28;20486;-68
2023/07/03 05:38:34;;;;;;;10.83;4.93;;;16.10;99.90;;;;;;5092061;28;20321;-68
2023/07/03 05:41:00;;;;;;;12.40;4.83;;;16.10;99.90;;;;;;5092205;28;20602;-68
2023/07/03 05:43:26;;;;;;;19.77;4.57;;;16.10;99.90;;;;;;5091187;28;20668;-68
2023/07/03 05:45:52;;;;;;;17.27;4.80;;;16.20;99.90;;;;;;5091982;28;20507;-68
2023/07/03 05:48:18;;;;;;;14.60;6.07;;;16.10;99.90;;;;;;5091707;28;20472;-68
2023/07/03 05:50:44;;;;;;;12.10;5.27;;;16.20;99.90;;;;;;5090346;28;20203;-68
2023/07/03 05:53:10;;;;;;;12.53;4.43;;;16.20;99.90;;;;;;5090870;28;20183;-68
2023/07/03 05:55:36;;;;;;;16.53;5.60;;;16.20;99.90;;;;;;5091641;28;20446;-68
2023/07/03 05:58:02;;;;;;;11.70;5.10;;;16.20;99.90;;;;;;5091756;28;20174;-67
2023/07/03 06:00:30;;;;;;;9.53;4.20;;;16.30;99.90;;;;;;5091760;28;20727;-68
2023/07/03 06:02:57;;;;;;;14.47;5.10;;;16.20;99.90;;;;;;5090765;28;20481;-68
2023/07/03 06:05:23;;;;;;;14.80;5.30;;;16.30;99.90;;;;;;5089020;28;20438;-67
2023/07/03 06:07:49;;;;;;;13.13;5.13;;;16.30;99.90;;;;;;5083625;28;20456;-67
2023/07/03 06:10:15;;;;;;;15.13;4.87;;;16.20;99.90;;;;;;5088552;28;20441;-69
2023/07/03 06:12:41;;;;;;;14.67;4.70;;;16.30;99.90;;;;;;5080301;28;20544;-69
2023/07/03 06:15:08;;;;;;;15.33;4.60;;;16.20;99.90;;;;;;5079235;28;20447;-68
2023/07/03 06:17:34;;;;;;;12.60;5.00;;;16.30;99.90;;;;;;5070510;28;21125;-68
2023/07/03 06:19:59;;;;;;;16.70;6.83;;;16.30;99.90;;;;;;5069814;28;20431;-68
2023/07/03 06:22:26;;;;;;;14.70;4.50;;;16.30;99.90;;;;;;5076040;28;20184;-69
2023/07/03 06:24:51;;;;;;;16.03;4.20;;;16.40;99.90;;;;;;5084530;28;20212;-68
2023/07/03 06:27:17;;;;;;;15.00;4.70;;;16.40;99.90;;;;;;5085952;28;20488;-69
2023/07/03 06:29:43;;;;;;;12.70;5.33;;;16.50;99.90;;;;;;5082670;28;20188;-68
2023/07/03 06:32:10;;;;;;;14.27;5.10;;;16.50;99.90;;;;;;5083010;28;20183;-69
2023/07/03 06:34:36;;;;;;;7.90;3.60;;;16.50;99.90;;;;;;5088967;28;20249;-68
2023/07/03 06:37:05;;;;;;;9.70;4.03;;;16.50;99.90;;;;;;5083162;28;20829;-69
2023/07/03 06:39:37;;;;;;;13.43;4.50;;;16.60;99.90;;;;;;5078089;28;20426;-68
2023/07/03 06:42:03;;;;;;;18.50;5.80;;;16.70;99.90;;;;;;5083007;28;20410;-68
2023/07/03 06:44:29;;;;;;;17.87;4.70;;;16.90;99.90;;;;;;5087101;28;20411;-68
2023/07/03 06:46:55;;;;;;;15.90;5.17;;;17.00;99.90;;;;;;5076865;28;20427;-68
2023/07/03 06:49:22;;;;;;;15.00;4.50;;;17.20;99.90;;;;;;5076339;28;20235;-68
2023/07/03 06:51:48;;;;;;;15.40;5.30;;;17.20;99.90;;;;;;5078628;28;20196;-68
2023/07/03 06:54:14;;;;;;;13.40;5.60;;;17.30;99.90;;;;;;5079041;28;20540;-68
2023/07/03 06:56:40;;;;;;;13.77;4.67;;;17.30;99.90;;;;;;5078757;28;20903;-69
2023/07/03 06:59:05;;;;;;;14.50;4.30;;;17.40;99.90;;;;;;5076711;28;20177;-68
2023/07/03 07:01:31;;;;;;;15.43;4.80;;;17.50;99.90;;;;;;5068224;28;20288;-69
2023/07/03 07:03:57;;;;;;;16.23;4.73;;;17.60;99.90;;;;;;5027455;28;1150308;-69
2023/07/03 07:06:29;;;;;;;14.40;5.40;;;17.60;99.90;;;;;;5070568;28;20222;-69
2023/07/03 07:08:55;;;;;;;11.23;4.73;;;17.70;99.90;;;;;;5070452;28;20415;-69
2023/07/03 07:11:38;;;;;;;14.77;4.93;;;17.70;99.90;;;;;;5070360;28;20504;-69
2023/07/03 07:14:06;;;;;;;14.00;5.00;;;17.70;99.90;;;;;;5069187;28;20463;-69
2023/07/03 07:16:36;;;;;;;12.70;4.73;;;17.70;99.90;;;;;;5070243;28;20419;-69
2023/07/03 07:19:04;;;;;;;13.70;4.60;;;17.90;99.90;;;;;;5070183;28;20415;-69
2023/07/03 07:21:32;;;;;;;13.80;4.47;;;18.00;99.90;;;;;;5069752;28;20459;-69
2023/07/03 07:24:10;;;;;;;11.53;4.20;;;17.90;99.90;;;;;;5069126;28;20494;-69
2023/07/03 07:26:36;;;;;;;16.77;5.80;;;17.90;99.90;;;;;;5079624;28;20563;-69
2023/07/03 07:29:03;;;;;;;11.00;3.93;;;17.90;99.90;;;;;;5079034;28;20528;-68
2023/07/03 07:31:29;;;;;;;12.20;5.20;;;17.80;99.90;;;;;;5069865;28;20431;-69
2023/07/03 07:33:55;;;;;;;12.83;5.33;;;17.70;99.90;;;;;;5068730;28;20500;-69
2023/07/03 07:36:23;;;;;;;11.60;4.37;;;17.70;99.90;;;;;;5069892;28;20816;-69
2023/07/03 07:38:50;;;;;;;8.87;5.17;;;17.70;99.90;;;;;;5082992;28;20934;-70
2023/07/03 07:41:15;;;;;;;13.80;4.93;;;17.80;99.90;;;;;;5089856;28;20977;-69
2023/07/03 07:43:41;;;;;;;8.23;5.07;;;17.80;99.90;;;;;;5088389;28;20551;-69
2023/07/03 07:46:07;;;;;;;11.27;4.37;;;17.70;99.90;;;;;;5089621;28;20657;-69
2023/07/03 07:48:34;;;;;;;11.13;5.77;;;17.70;99.90;;;;;;5089896;28;20187;-69
2023/07/03 07:51:00;;;;;;;13.60;4.80;;;17.70;99.90;;;;;;5089644;28;20215;-69
2023/07/03 07:53:28;;;;;;;11.63;4.93;;;17.90;99.90;;;;;;5088752;28;20907;-69
2023/07/03 07:55:58;;;;;;;14.40;5.60;;;18.00;99.90;;;;;;5089520;28;20446;-69
2023/07/03 07:58:24;;;;;;;12.07;5.20;;;18.20;99.90;;;;;;5088081;28;20406;-68
2023/07/03 08:00:52;;;;;;;12.80;5.17;;;18.30;99.90;;;;;;5089387;28;21031;-69
2023/07/03 08:03:17;;;;;;;19.50;6.33;;;18.50;99.90;;;;;;5087046;28;20426;-69
2023/07/03 08:05:43;;;;;;;13.20;5.00;;;18.70;99.90;;;;;;5089508;28;20418;-69
2023/07/03 08:08:09;;;;;;;8.33;4.30;;;18.80;99.90;;;;;;5089375;28;20207;-69
2023/07/03 08:10:35;;;;;;;12.43;5.00;;;18.70;99.90;;;;;;5089194;28;20208;-69
2023/07/03 08:13:00;;;;;;;14.07;4.77;;;18.70;99.90;;;;;;5088403;28;20207;-69
2023/07/03 08:15:27;;;;;;;13.27;5.80;;;18.60;99.90;;;;;;5089008;28;20216;-69
2023/07/03 08:17:52;;;;;;;10.10;4.30;;;18.50;99.90;;;;;;5089040;28;20644;-69
2023/07/03 08:20:18;;;;;;;14.80;5.20;;;18.40;99.90;;;;;;5089101;28;20434;-69
2023/07/03 08:22:44;;;;;;;8.30;4.13;;;18.30;99.90;;;;;;5088303;28;20261;-69
2023/07/03 08:25:10;;;;;;;7.30;4.07;;;18.30;99.90;;;;;;5087545;28;20191;-69
2023/07/03 08:27:36;;;;;;;14.37;5.10;;;18.20;99.90;;;;;;5088832;28;20188;-69
2023/07/03 08:30:06;;;;;;;10.33;4.47;;;18.10;99.90;;;;;;5088928;28;20894;-69
2023/07/03 08:32:32;;;;;;;10.23;3.80;;;18.00;99.90;;;;;;5088242;28;20425;-69
2023/07/03 08:34:58;;;;;;;9.03;5.00;;;18.00;99.90;;;;;;5086860;28;20462;-69
2023/07/03 08:37:23;;;;;;;13.40;4.70;;;18.00;99.90;;;;;;5086744;28;20212;-69
2023/07/03 08:39:49;;;;;;;10.10;4.70;;;17.90;99.90;;;;;;5082242;28;20215;-69
2023/07/03 08:42:32;;;;;;;11.17;4.70;;;17.90;99.90;;;;;;5075337;28;20337;-68
2023/07/03 08:44:59;;;;;;;11.10;4.77;;;17.80;99.90;;;;;;5087722;28;20762;-69
2023/07/03 08:47:29;;;;;;;8.40;3.77;;;17.80;99.90;;;;;;5086909;28;20418;-69
2023/07/03 08:49:57;;;;;;;12.10;4.37;;;17.80;99.90;;;;;;5087267;28;20946;-69
2023/07/03 08:52:35;;;;;;;13.33;4.43;;;18.00;99.90;;;;;;5087903;28;20414;-68
2023/07/03 08:55:03;;;;;;;13.83;4.20;;;18.20;99.90;;;;;;5088241;28;20454;-69
2023/07/03 08:57:31;;;;;;;11.17;5.23;;;18.40;99.90;;;;;;5087492;28;20441;-69
2023/07/03 08:59:56;;;;;;;8.13;4.10;;;18.60;99.90;;;;;;5079213;28;20435;-69
2023/07/03 09:02:40;;;;;;;15.13;4.27;;;18.70;99.90;;;;;;5084998;28;20422;-69
2023/07/03 09:05:41;;;;;;;10.00;3.90;;;18.70;99.90;;;;;;5068133;28;20227;-69
2023/07/03 09:08:12;;;;;;;11.20;4.57;;;18.90;99.90;;;;;;5061173;28;20438;-70
2023/07/03 09:10:46;;;;;;;10.93;4.53;;;19.10;99.90;;;;;;5077807;28;20663;-69
2023/07/03 09:13:20;;;;;;;7.20;4.13;;;19.20;99.90;;;;;;5087612;28;20418;-69
2023/07/03 09:15:54;;;;;;;11.80;5.67;;;19.20;99.90;;;;;;5088341;28;20912;-70
2023/07/03 09:18:26;;;;;;;9.90;4.37;;;19.10;99.90;;;;;;5088527;28;20398;-69
2023/07/03 09:20:52;;;;;;;12.13;4.47;;;19.00;99.90;;;;;;5088430;28;20947;-68
2023/07/03 09:23:26;;;;;;;7.60;4.60;;;18.80;99.90;;;;;;5087465;28;20402;-69
2023/07/03 09:26:01;;;;;;;11.23;4.20;;;18.80;99.90;;;;;;5088504;28;20393;-70
2023/07/03 09:28:26;;;;;;;5.80;3.73;;;19.00;99.90;;;;;;5086993;28;20540;-69
2023/07/03 09:30:55;;;;;;;8.00;3.87;;;19.20;99.90;;;;;;5088266;28;20506;-68
2023/07/03 09:33:21;;;;;;;9.87;3.97;;;19.30;99.90;;;;;;5087091;28;20899;-70
2023/07/03 09:35:47;;;;;;;8.60;4.33;;;19.40;99.90;;;;;;5088268;28;20426;-69
2023/07/03 09:38:21;;;;;;;8.93;3.50;;;19.40;99.90;;;;;;5088201;28;20798;-69
2023/07/03 09:40:53;;;;;;;5.60;3.80;;;19.40;99.90;;;;;;5083675;28;20492;-70
2023/07/03 09:43:24;;;;;;;7.13;3.80;;;19.40;99.70;;;;;;5074895;28;20429;-69
2023/07/03 09:46:00;;;;;;;7.40;4.10;;;19.40;99.60;;;;;;5087620;28;20548;-69
2023/07/03 09:48:30;;;;;;;10.53;4.40;;;19.40;99.10;;;;;;5086830;28;20403;-69
2023/07/03 09:50:56;;;;;;;11.90;4.10;;;19.40;99.30;;;;;;5070280;28;20450;-69
2023/07/03 09:53:26;;;;;;;10.70;3.30;;;19.50;98.90;;;;;;5084110;28;20417;-69
2023/07/03 09:55:52;;;;;;;7.60;3.77;;;19.60;98.20;;;;;;5072992;28;20920;-69
2023/07/03 09:58:18;;;;;;;9.30;3.20;;;19.70;97.10;;;;;;5075858;28;20411;-69
2023/07/03 10:00:50;;;;;;;9.60;3.63;;;19.80;97.00;;;;;;5080673;28;20419;-69
2023/07/03 10:03:30;;;;;;;9.37;3.73;;;19.80;97.30;;;;;;5076848;28;20183;-69
2023/07/03 10:06:03;;;;;;;8.23;4.33;;;19.90;97.00;;;;;;5084179;28;20467;-69
2023/07/03 10:08:28;;;;;;;7.97;3.20;;;19.90;96.60;;;;;;5080641;28;20484;-69
2023/07/03 10:10:59;;;;;;;5.83;3.07;;;20.00;97.10;;;;;;5071128;28;20423;-69
2023/07/03 10:13:29;;;;;;;9.23;3.87;;;20.00;96.50;;;;;;5072972;28;20415;-69
2023/07/03 10:15:56;;;;;;;5.97;3.17;;;19.90;95.40;;;;;;5074290;28;20411;-69
2023/07/03 10:18:31;;;;;;;11.87;3.37;;;19.90;95.50;;;;;;5071259;28;20897;-69
2023/07/03 10:21:01;;;;;;;6.97;3.30;;;19.90;96.20;;;;;;5071108;28;20949;-69
2023/07/03 10:23:30;;;;;;;7.27;3.23;;;19.90;95.50;;;;;;5069058;28;20417;-69
2023/07/03 10:26:05;;;;;;;6.97;3.23;;;19.90;95.80;;;;;;5073008;28;20487;-69
2023/07/03 10:28:43;;;;;;;7.40;3.37;;;19.90;95.90;;;;;;5111608;28;20406;-69
2023/07/03 10:31:20;;;;;;;5.63;2.80;;;20.10;95.10;;;;;;5104639;28;20509;-69
2023/07/03 10:33:50;;;;;;;5.37;3.03;;;20.10;94.60;;;;;;5089965;28;20479;-69
2023/07/03 10:36:24;;;;;;;6.30;3.27;;;20.30;94.80;;;;;;5084782;28;20818;-69
2023/07/03 10:38:50;;;;;;;5.53;2.60;;;20.50;95.20;;;;;;5076665;28;20475;-69
2023/07/03 10:41:23;;;;;;;7.30;3.40;;;20.60;95.00;;;;;;5086498;28;20477;-69
2023/07/03 10:43:56;;;;;;;7.37;3.43;;;20.70;95.10;;;;;;5074704;28;20709;-70
2023/07/03 10:46:30;;;;;;;8.10;3.00;;;20.70;95.20;;;;;;5084991;28;20487;-69
2023/07/03 10:49:00;;;;;;;6.83;2.80;;;20.60;95.60;;;;;;5082760;28;20513;-69
2023/07/03 10:51:50;;;;;;;7.47;2.60;;;20.60;94.00;;;;;;5080429;28;21001;-69
2023/07/03 10:54:26;;;;;;;8.63;3.00;;;20.60;94.60;;;;;;5082609;28;20450;-69
2023/07/03 10:56:55;;;;;;;7.97;3.03;;;20.70;94.40;;;;;;5074282;28;20418;-69
2023/07/03 10:59:27;;;;;;;8.43;3.10;;;20.70;94.80;;;;;;5083320;28;20473;-69
2023/07/03 11:02:02;;;;;;;6.13;3.00;;;20.80;94.70;;;;;;5082115;28;20433;-69
2023/07/03 11:04:31;;;;;;;10.00;3.50;;;20.80;94.60;;;;;;5080012;28;20449;-69
2023/07/03 11:07:24;;;;;;;6.70;3.20;;;20.80;94.30;;;;;;5088756;28;20418;-69
2023/07/03 11:10:13;;;;;;;6.70;3.23;;;20.70;94.60;;;;;;5070361;28;20449;-69
2023/07/03 11:12:44;;;;;;;11.30;3.20;;;20.80;94.70;;;;;;5084209;28;20419;-70
2023/07/03 11:15:40;;;;;;;7.00;3.13;;;20.80;93.80;;;;;;5080265;28;20450;-69
2023/07/03 11:18:40;;;;;;;4.77;2.80;;;20.70;93.80;;;;;;5077028;28;20421;-69
2023/07/03 11:21:31;;;;;;;5.33;2.90;;;20.60;94.20;;;;;;5081541;28;20423;-69
2023/07/03 11:24:29;;;;;;;9.17;3.07;;;20.60;94.20;;;;;;5094401;28;20416;-69
2023/07/03 11:27:14;;;;;;;10.97;3.17;;;20.60;93.40;;;;;;5084388;28;20458;-70
2023/07/03 11:29:41;;;;;;;5.70;2.63;;;20.80;93.70;;;;;;5085730;28;20406;-69
2023/07/03 11:32:08;;;;;;;6.30;3.40;;;20.80;92.30;;;;;;5081665;28;20444;-69
2023/07/03 11:34:35;;;;;;;7.03;2.90;;;20.80;91.30;;;;;;5084174;28;20454;-69
2023/07/03 11:37:01;;;;;;;8.57;3.50;;;20.70;91.60;;;;;;5082426;28;20418;-69
2023/07/03 11:39:33;;;;;;;5.17;2.87;;;20.70;92.00;;;;;;5077902;28;20572;-69
2023/07/03 11:42:02;;;;;;;9.40;4.60;;;20.70;91.80;;;;;;5078992;28;20414;-69
2023/07/03 11:44:27;;;;;;;6.67;3.50;;;20.70;92.60;;;;;;5071796;28;20423;-69
2023/07/03 11:47:10;;;;;;;8.87;3.83;;;20.60;93.00;;;;;;5081706;28;20414;-69
2023/07/03 11:49:41;;;;;;;7.63;3.43;;;20.50;93.50;;;;;;5082624;28;20193;-69
2023/07/03 11:52:11;;;;;;;4.33;3.13;;;20.50;93.90;;;;;;5088358;28;20411;-69
2023/07/03 11:54:39;;;;;;;5.73;2.93;;;20.50;94.20;;;;;;5079327;28;20808;-69
2023/07/03 11:57:31;;;;;;;8.10;3.60;;;20.40;94.80;;;;;;5085649;28;20414;-69
2023/07/03 12:00:17;;;;;;;7.03;4.20;;;20.50;95.30;;;;;;5082192;28;20434;-70
2023/07/03 12:02:48;;;;;;;5.93;3.30;;;20.60;95.70;;;;;;5082410;28;20399;-69
2023/07/03 12:05:45;;;;;;;7.87;3.87;;;20.80;96.40;;;;;;5080078;28;20434;-69
2023/07/03 12:08:40;;;;;;;7.40;3.53;;;21.10;96.10;;;;;;5077704;28;20413;-70
2023/07/03 12:11:07;;;;;;;4.30;3.80;;;21.30;95.80;;;;;;5073106;28;20481;-69
2023/07/03 12:13:33;;;;;;;9.93;4.03;;;21.50;96.60;;;;;;5080853;28;20626;-69
2023/07/03 12:16:05;;;;;;;9.90;3.57;;;21.70;95.70;;;;;;5084191;28;20418;-69
2023/07/03 12:18:32;;;;;;;9.07;4.00;;;21.50;94.80;;;;;;5079174;28;20431;-69
2023/07/03 12:21:00;;;;;;;5.53;3.10;;;21.30;94.50;;;;;;5081024;28;20434;-69
2023/07/03 12:23:41;;;;;;;4.80;3.23;;;21.20;95.10;;;;;;5083360;28;20429;-69
2023/07/03 12:26:15;;;;;;;7.17;4.10;;;21.00;95.70;;;;;;5084007;28;20445;-69
2023/07/03 12:28:42;;;;;;;6.30;3.80;;;20.80;95.20;;;;;;5082377;28;20494;-69
2023/07/03 12:31:09;;;;;;;8.73;3.67;;;20.50;95.30;;;;;;5086400;28;20430;-69
2023/07/03 12:33:34;;;;;;;11.33;4.00;;;20.30;95.70;;;;;;5079682;28;20440;-69
2023/07/03 12:36:00;;;;;;;7.80;4.17;;;20.20;96.00;;;;;;5084340;28;20965;-69
2023/07/03 12:38:26;;;;;;;7.23;3.73;;;20.10;96.00;;;;;;5081675;28;20181;-69
2023/07/03 12:40:51;;;;;;;7.93;3.70;;;20.00;96.00;;;;;;5087446;28;20196;-69
2023/07/03 12:43:18;;;;;;;6.47;3.53;;;20.00;96.80;;;;;;5078416;28;20184;-70
2023/07/03 12:45:51;;;;;;;7.60;4.30;;;19.90;97.10;;;;;;5074004;28;20193;-70
2023/07/03 12:48:22;;;;;;;8.70;4.07;;;20.00;97.30;;;;;;5083090;28;20513;-69
2023/07/03 12:50:57;;;;;;;11.97;4.37;;;20.00;97.30;;;;;;5083074;28;20450;-69